createdAt,value
2022-08-20T00:01:14.661Z,2.38
2022-08-20T00:03:44.696Z,2.22
2022-08-20T00:06:19.935Z,2.30
2022-08-20T00:08:47.589Z,2.40
2022-08-20T00:11:18.483Z,2.17
2022-08-20T00:13:52.588Z,2.10
2022-08-20T00:16:22.642Z,2.30
2022-08-20T00:18:49.781Z,2.10
2022-08-20T00:21:19.003Z,2.08
2022-08-20T00:23:49.454Z,2.13
2022-08-20T00:28:43.785Z,2.17
2022-08-20T00:31:14.000Z,2.42
2022-08-20T00:33:41.642Z,1.70
2022-08-20T00:36:10.864Z,2.05
2022-08-20T00:38:39.518Z,2.33
2022-08-20T00:41:09.032Z,1.98
2022-08-20T00:43:41.209Z,1.85
2022-08-20T00:46:16.563Z,2.08
2022-08-20T00:48:53.978Z,2.13
2022-08-20T00:51:35.925Z,2.55
2022-08-20T00:54:09.180Z,2.28
2022-08-20T00:56:37.189Z,2.13
2022-08-20T00:59:11.627Z,2.40
2022-08-20T01:01:55.842Z,1.95
2022-08-20T01:04:31.557Z,2.65
2022-08-20T01:06:58.932Z,2.25
2022-08-20T01:09:49.754Z,2.25
2022-08-20T01:12:16.165Z,2.53
2022-08-20T01:14:46.262Z,2.20
2022-08-20T01:19:50.387Z,2.03
2022-08-20T01:22:44.337Z,2.58
2022-08-20T01:25:21.700Z,2.28
2022-08-20T01:27:55.429Z,2.15
2022-08-20T01:30:26.776Z,2.83
2022-08-20T01:32:54.159Z,3.35
2022-08-20T01:35:22.637Z,2.30
2022-08-20T01:37:50.115Z,2.50
2022-08-20T01:40:40.664Z,2.10
2022-08-20T01:43:09.173Z,2.30
2022-08-20T01:45:40.013Z,2.40
2022-08-20T01:50:41.842Z,2.40
2022-08-20T01:53:30.132Z,2.72
2022-08-20T01:55:57.610Z,2.42
2022-08-20T01:58:25.078Z,2.20
2022-08-20T02:00:52.385Z,2.63
2022-08-20T02:03:19.819Z,2.88
2022-08-20T02:05:47.313Z,2.10
2022-08-20T02:08:14.662Z,2.88
2022-08-20T02:10:42.096Z,2.67
2022-08-20T02:13:10.192Z,2.70
2022-08-20T02:15:39.937Z,3.00
2022-08-20T02:18:14.284Z,2.92
2022-08-20T02:20:43.422Z,2.92
2022-08-20T02:23:12.085Z,2.15
2022-08-20T02:25:41.898Z,2.95
2022-08-20T02:28:12.019Z,2.95
2022-08-20T02:30:43.301Z,3.38
2022-08-20T02:33:13.309Z,2.72
2022-08-20T02:35:42.887Z,2.42
2022-08-20T02:38:10.683Z,2.78
2022-08-20T02:40:38.068Z,3.13
2022-08-20T02:43:05.575Z,3.47
2022-08-20T02:45:43.734Z,2.83
2022-08-20T02:48:21.512Z,3.53
2022-08-20T02:50:57.444Z,3.25
2022-08-20T02:53:26.576Z,3.22
2022-08-20T02:55:54.320Z,3.15
2022-08-20T02:58:22.630Z,3.85
2022-08-20T03:00:50.655Z,3.63
2022-08-20T03:03:22.445Z,3.75
2022-08-20T03:05:51.923Z,3.30
2022-08-20T03:08:19.587Z,3.35
2022-08-20T03:10:47.727Z,3.30
2022-08-20T03:13:16.493Z,3.60
2022-08-20T03:15:51.834Z,3.03
2022-08-20T03:18:21.592Z,3.58
2022-08-20T03:20:51.378Z,3.83
2022-08-20T03:23:21.363Z,3.83
2022-08-20T03:25:48.885Z,3.92
2022-08-20T03:28:17.717Z,4.22
2022-08-20T03:30:45.126Z,4.20
2022-08-20T03:33:12.213Z,4.85
2022-08-20T03:35:39.754Z,5.20
2022-08-20T03:38:11.589Z,5.55
2022-08-20T03:40:39.027Z,5.15
2022-08-20T03:43:08.869Z,5.43
2022-08-20T03:45:37.520Z,5.93
2022-08-20T03:48:07.644Z,5.63
2022-08-20T03:53:02.893Z,5.28
2022-08-20T03:55:31.622Z,5.43
2022-08-20T03:58:03.939Z,6.45
2022-08-20T04:00:37.248Z,5.88
2022-08-20T04:03:04.736Z,5.53
2022-08-20T04:05:33.523Z,6.13
2022-08-20T04:08:03.266Z,5.93
2022-08-20T04:10:32.018Z,6.03
2022-08-20T04:12:59.414Z,6.47
2022-08-20T04:15:27.125Z,6.47
2022-08-20T04:17:54.612Z,6.22
2022-08-20T04:20:25.980Z,7.32
2022-08-20T04:22:59.475Z,6.95
2022-08-20T04:25:35.837Z,7.18
2022-08-20T04:28:06.594Z,7.07
2022-08-20T04:30:34.606Z,6.88
2022-08-20T04:33:02.157Z,7.57
2022-08-20T04:35:30.379Z,7.22
2022-08-20T04:38:02.696Z,7.05
2022-08-20T04:41:05.700Z,7.43
2022-08-20T04:43:37.266Z,8.55
2022-08-20T04:46:09.658Z,7.60
2022-08-20T04:48:39.288Z,6.70
2022-08-20T04:51:10.311Z,8.02
2022-08-20T04:53:37.375Z,7.60
2022-08-20T04:56:04.712Z,8.02
2022-08-20T04:58:34.797Z,7.32
2022-08-20T05:01:11.198Z,7.10
2022-08-20T05:03:39.849Z,8.20
2022-08-20T05:06:09.990Z,7.50
2022-08-20T05:08:38.635Z,8.48
2022-08-20T05:11:32.935Z,7.45
2022-08-20T05:13:54.478Z,8.07
2022-08-20T05:16:24.084Z,7.47
2022-08-20T05:18:52.741Z,7.70
2022-08-20T05:21:21.360Z,7.85
2022-08-20T05:23:49.377Z,8.00
2022-08-20T05:26:20.295Z,8.10
2022-08-20T05:28:58.347Z,8.30
2022-08-20T05:31:32.317Z,8.90
2022-08-20T05:34:10.747Z,9.25
2022-08-20T05:36:41.120Z,9.55
2022-08-20T05:39:09.139Z,9.48
2022-08-20T05:41:36.772Z,9.60
2022-08-20T05:44:04.306Z,9.43
2022-08-20T05:46:32.085Z,9.80
2022-08-20T05:49:01.608Z,10.25
2022-08-20T05:51:29.327Z,10.73
2022-08-20T05:53:59.126Z,10.00
2022-08-20T05:56:30.629Z,10.18
2022-08-20T05:59:00.787Z,11.68
2022-08-20T06:01:28.224Z,10.82
2022-08-20T06:04:14.421Z,11.18
2022-08-20T06:06:46.316Z,12.45
2022-08-20T06:09:16.646Z,12.60
2022-08-20T06:11:59.615Z,13.10
2022-08-20T06:14:27.452Z,14.02
2022-08-20T06:16:57.654Z,14.55
2022-08-20T06:19:27.182Z,15.18
2022-08-20T06:21:59.892Z,14.93
2022-08-20T06:24:27.793Z,16.02
2022-08-20T06:26:59.994Z,15.27
2022-08-20T06:29:28.633Z,15.43
2022-08-20T06:31:56.447Z,15.32
2022-08-20T06:34:28.341Z,15.23
2022-08-20T06:36:58.840Z,16.85
2022-08-20T06:39:28.551Z,17.80
2022-08-20T06:41:56.223Z,19.73
2022-08-20T06:44:24.330Z,21.63
2022-08-20T06:46:51.718Z,21.45
2022-08-20T06:49:19.330Z,21.52
2022-08-20T06:51:46.496Z,21.33
2022-08-20T06:54:19.435Z,21.63
2022-08-20T06:56:47.445Z,23.08
2022-08-20T06:59:14.855Z,22.63
2022-08-20T07:01:42.321Z,24.85
2022-08-20T07:04:09.333Z,24.98
2022-08-20T07:06:36.727Z,22.20
2022-08-20T07:09:03.985Z,22.77
2022-08-20T07:11:31.344Z,21.40
2022-08-20T07:13:59.437Z,20.83
2022-08-20T07:16:27.265Z,19.60
2022-08-20T07:18:54.308Z,23.05
2022-08-20T07:21:21.745Z,21.08
2022-08-20T07:23:49.538Z,23.63
2022-08-20T07:26:17.154Z,24.27
2022-08-20T07:28:44.127Z,25.95
2022-08-20T07:31:31.204Z,25.05
2022-08-20T07:33:59.824Z,24.27
2022-08-20T07:36:27.362Z,23.83
2022-08-20T07:38:54.937Z,23.95
2022-08-20T07:41:25.014Z,24.17
2022-08-20T07:43:52.618Z,24.27
2022-08-20T07:46:21.562Z,23.95
2022-08-20T07:48:50.527Z,23.33
2022-08-20T07:51:20.658Z,24.15
2022-08-20T07:53:49.014Z,23.27
2022-08-20T07:56:22.755Z,24.52
2022-08-20T07:58:55.709Z,23.58
2022-08-20T08:01:26.080Z,22.88
2022-08-20T08:03:53.998Z,23.60
2022-08-20T08:06:28.682Z,23.50
2022-08-20T08:09:04.779Z,23.38
2022-08-20T08:11:34.683Z,24.00
2022-08-20T08:14:03.157Z,23.02
2022-08-20T08:16:32.552Z,22.55
2022-08-20T08:19:01.997Z,23.27
2022-08-20T08:21:30.085Z,22.20
2022-08-20T08:23:58.320Z,21.73
2022-08-20T08:26:28.850Z,22.88
2022-08-20T08:28:58.252Z,22.98
2022-08-20T08:31:26.015Z,22.55
2022-08-20T08:33:53.639Z,21.92
2022-08-20T08:36:21.179Z,24.00
2022-08-20T08:38:48.188Z,21.48
2022-08-20T08:41:34.766Z,22.73
2022-08-20T08:44:10.582Z,22.02
2022-08-20T08:46:41.913Z,22.58
2022-08-20T08:49:14.458Z,23.10
2022-08-20T08:51:45.488Z,22.67
2022-08-20T08:54:20.156Z,21.23
2022-08-20T08:56:50.715Z,21.55
2022-08-20T08:59:19.305Z,17.33
2022-08-20T09:01:57.300Z,19.35
2022-08-20T09:04:38.098Z,17.63
2022-08-20T09:07:10.977Z,16.10
2022-08-20T09:09:41.818Z,15.10
2022-08-20T09:12:20.244Z,14.02
2022-08-20T09:14:49.041Z,13.25
2022-08-20T09:17:17.069Z,14.07
2022-08-20T09:19:44.569Z,14.70
2022-08-20T09:22:17.998Z,14.65
2022-08-20T09:24:45.791Z,13.07
2022-08-20T09:27:13.381Z,11.65
2022-08-20T09:29:41.025Z,9.88
2022-08-20T09:32:16.150Z,9.50
2022-08-20T09:34:47.287Z,7.65
2022-08-20T09:37:15.188Z,7.80
2022-08-20T09:39:43.219Z,7.28
2022-08-20T09:42:20.475Z,7.82
2022-08-20T09:44:48.572Z,8.45
2022-08-20T09:47:17.354Z,7.30
2022-08-20T09:49:46.915Z,8.55
2022-08-20T09:52:24.691Z,8.45
2022-08-20T09:54:55.421Z,8.93
2022-08-20T09:57:23.292Z,8.75
2022-08-20T09:59:57.508Z,8.68
2022-08-20T10:02:26.282Z,8.40
2022-08-20T10:04:53.714Z,9.13
2022-08-20T10:07:21.062Z,8.23
2022-08-20T10:09:48.092Z,8.65
2022-08-20T10:12:15.424Z,8.52
2022-08-20T10:14:42.786Z,7.38
2022-08-20T10:17:10.310Z,6.20
2022-08-20T10:19:37.653Z,8.65
2022-08-20T10:22:04.735Z,5.50
2022-08-20T10:24:32.018Z,5.10
2022-08-20T10:27:00.800Z,7.30
2022-08-20T10:29:29.775Z,8.90
2022-08-20T10:31:57.194Z,9.50
2022-08-20T10:34:25.578Z,9.05
2022-08-20T10:36:53.231Z,9.00
2022-08-20T10:39:21.358Z,8.38
2022-08-20T10:41:48.759Z,8.90
2022-08-20T10:44:17.640Z,7.18
2022-08-20T10:46:45.857Z,7.65
2022-08-20T10:49:13.389Z,5.68
2022-08-20T10:51:40.615Z,5.22
2022-08-20T10:54:12.306Z,4.70
2022-08-20T10:56:40.278Z,7.13
2022-08-20T10:59:07.609Z,6.53
2022-08-20T11:01:36.722Z,6.97
2022-08-20T11:04:05.259Z,7.15
2022-08-20T11:06:32.723Z,6.03
2022-08-20T11:09:00.197Z,5.43
2022-08-20T11:11:27.908Z,5.00
2022-08-20T11:13:57.734Z,4.20
2022-08-20T11:16:26.831Z,4.97
2022-08-20T11:18:54.583Z,4.57
2022-08-20T11:21:24.697Z,4.80
2022-08-20T11:26:23.421Z,2.65
2022-08-20T11:28:50.784Z,2.42
2022-08-20T11:31:18.529Z,3.20
2022-08-20T11:33:46.349Z,2.65
2022-08-20T11:36:13.364Z,2.13
2022-08-20T11:38:40.437Z,2.22
2022-08-20T11:41:07.892Z,2.20
2022-08-20T11:43:35.215Z,2.30
2022-08-20T11:46:02.252Z,1.73
2022-08-20T11:48:29.260Z,2.22
2022-08-20T11:50:56.779Z,2.42
2022-08-20T11:53:24.108Z,2.55
2022-08-20T11:55:52.533Z,2.10
2022-08-20T11:58:20.474Z,1.90
2022-08-20T12:00:47.916Z,2.20
2022-08-20T12:03:15.491Z,2.45
2022-08-20T12:05:45.089Z,2.13
2022-08-20T12:08:25.132Z,2.15
2022-08-20T12:10:54.768Z,1.95
2022-08-20T12:13:23.601Z,2.30
2022-08-20T12:15:58.773Z,2.85
2022-08-20T12:18:27.051Z,2.45
2022-08-20T12:20:55.018Z,2.50
2022-08-20T12:23:22.457Z,2.83
2022-08-20T12:25:50.234Z,2.45
2022-08-20T12:28:17.610Z,2.30
2022-08-20T12:30:53.493Z,2.65
2022-08-20T12:33:20.444Z,2.50
2022-08-20T12:35:47.456Z,2.00
2022-08-20T12:38:14.816Z,1.90
2022-08-20T12:40:42.329Z,2.20
2022-08-20T12:43:09.329Z,2.00
2022-08-20T12:45:37.274Z,1.90
2022-08-20T12:48:10.613Z,2.03
2022-08-20T12:50:40.226Z,1.70
2022-08-20T12:53:07.659Z,2.20
2022-08-20T12:55:35.495Z,1.58
2022-08-20T12:58:04.398Z,1.85
2022-08-20T13:00:43.162Z,2.25
2022-08-20T13:03:12.522Z,1.80
2022-08-20T13:05:41.295Z,1.77
2022-08-20T13:08:11.121Z,1.80
2022-08-20T13:10:44.569Z,2.00
2022-08-20T13:13:17.726Z,1.95
2022-08-20T13:15:49.306Z,1.52
2022-08-20T13:18:16.317Z,1.92
2022-08-20T13:20:43.458Z,1.55
2022-08-20T13:23:10.653Z,1.55
2022-08-20T13:25:38.103Z,1.70
2022-08-20T13:28:06.116Z,2.00
2022-08-20T13:30:38.500Z,2.25
2022-08-20T13:33:05.513Z,1.63
2022-08-20T13:35:32.733Z,1.85
2022-08-20T13:38:00.133Z,2.05
2022-08-20T13:40:27.843Z,2.10
2022-08-20T13:42:55.335Z,2.05
2022-08-20T13:45:22.539Z,1.60
2022-08-20T13:47:55.138Z,1.85
2022-08-20T13:50:26.092Z,2.13
2022-08-20T13:52:53.498Z,1.95
2022-08-20T13:55:22.627Z,2.70
2022-08-20T13:57:51.025Z,2.42
2022-08-20T14:00:31.035Z,2.90
2022-08-20T14:03:01.021Z,2.67
2022-08-20T14:05:29.482Z,2.35
2022-08-20T14:08:03.872Z,2.53
2022-08-20T14:10:32.998Z,2.80
2022-08-20T14:13:00.245Z,2.28
2022-08-20T14:15:27.396Z,1.70
2022-08-20T14:17:56.375Z,2.28
2022-08-20T14:20:29.093Z,2.03
2022-08-20T14:22:58.227Z,2.25
2022-08-20T14:25:27.012Z,1.88
2022-08-20T14:27:55.138Z,2.08
2022-08-20T14:30:28.439Z,1.73
2022-08-20T14:32:56.437Z,1.85
2022-08-20T14:35:24.038Z,1.67
2022-08-20T14:37:53.416Z,1.60
2022-08-20T14:40:22.968Z,1.73
2022-08-20T14:42:51.669Z,1.90
2022-08-20T14:45:20.494Z,1.60
2022-08-20T14:47:53.865Z,1.45
2022-08-20T14:50:33.770Z,1.80
2022-08-20T14:53:01.724Z,1.90
2022-08-20T14:55:32.317Z,2.17
2022-08-20T14:57:59.627Z,1.90
2022-08-20T15:00:30.137Z,1.65
2022-08-20T15:02:57.927Z,2.10
2022-08-20T15:05:25.421Z,2.05
2022-08-20T15:07:54.133Z,1.63
2022-08-20T15:10:31.344Z,1.80
2022-08-20T15:12:59.564Z,1.52
2022-08-20T15:15:27.476Z,1.85
2022-08-20T15:17:57.149Z,2.28
2022-08-20T15:20:28.433Z,2.00
2022-08-20T15:22:55.762Z,1.80
2022-08-20T15:25:25.980Z,1.90
2022-08-20T15:27:58.386Z,2.08
2022-08-20T15:30:30.534Z,1.83
2022-08-20T15:32:57.986Z,1.65
2022-08-20T15:35:26.956Z,1.70
2022-08-20T15:40:28.174Z,1.40
2022-08-20T15:42:57.197Z,1.25
2022-08-20T15:45:24.728Z,1.55
2022-08-20T15:47:52.247Z,1.23
2022-08-20T15:50:48.449Z,0.90
2022-08-20T15:53:39.487Z,1.05
2022-08-20T15:56:34.110Z,1.30
2022-08-20T15:59:04.323Z,1.20
2022-08-20T16:02:10.034Z,1.13
2022-08-20T16:04:39.820Z,1.13
2022-08-20T16:07:14.661Z,1.50
2022-08-20T16:10:01.789Z,1.10
2022-08-20T16:12:41.728Z,0.90
2022-08-20T16:15:12.593Z,1.02
2022-08-20T16:18:02.226Z,1.17
2022-08-20T16:20:39.743Z,1.50
2022-08-20T16:23:07.832Z,1.20
2022-08-20T16:25:57.186Z,1.13
2022-08-20T16:28:34.156Z,0.93
2022-08-20T16:31:08.682Z,1.10
2022-08-20T16:33:55.703Z,1.52
2022-08-20T16:36:43.553Z,1.10
2022-08-20T16:39:49.768Z,1.17
2022-08-20T16:42:22.621Z,1.33
2022-08-20T16:44:53.239Z,1.25
2022-08-20T16:47:36.435Z,1.23
2022-08-20T16:50:17.913Z,1.40
2022-08-20T16:52:46.673Z,1.25
2022-08-20T16:55:14.863Z,1.60
2022-08-20T16:57:43.162Z,1.45
2022-08-20T17:00:19.504Z,1.50
2022-08-20T17:02:53.803Z,1.40
2022-08-20T17:05:23.559Z,1.60
2022-08-20T17:07:59.236Z,1.90
2022-08-20T17:10:53.754Z,1.30
2022-08-20T17:13:28.262Z,1.50
2022-08-20T17:16:20.895Z,1.33
2022-08-20T17:18:53.030Z,1.75
2022-08-20T17:21:27.524Z,1.55
2022-08-20T17:24:00.376Z,1.90
2022-08-20T17:26:27.868Z,1.60
2022-08-20T17:28:59.382Z,1.75
2022-08-20T17:31:38.517Z,1.63
2022-08-20T17:34:06.678Z,1.60
2022-08-20T17:36:35.042Z,2.47
2022-08-20T17:39:02.719Z,1.60
2022-08-20T17:41:36.296Z,1.48
2022-08-20T17:44:09.133Z,1.90
2022-08-20T17:46:43.966Z,1.67
2022-08-20T17:49:15.094Z,1.67
2022-08-20T17:51:49.158Z,1.90
2022-08-20T17:54:33.172Z,1.65
2022-08-20T17:57:05.493Z,1.70
2022-08-20T18:00:01.604Z,1.40
2022-08-20T18:02:23.678Z,1.67
2022-08-20T18:04:54.005Z,1.60
2022-08-20T18:07:31.531Z,2.10
2022-08-20T18:09:58.938Z,1.45
2022-08-20T18:12:39.266Z,1.90
2022-08-20T18:15:06.685Z,2.20
2022-08-20T18:17:52.554Z,2.38
2022-08-20T18:20:55.010Z,2.33
2022-08-20T18:23:28.699Z,2.25
2022-08-20T18:26:06.520Z,2.50
2022-08-20T18:28:38.935Z,1.85
2022-08-20T18:31:09.127Z,2.20
2022-08-20T18:36:17.962Z,3.28
2022-08-20T18:38:59.243Z,3.50
2022-08-20T18:41:41.649Z,3.42
2022-08-20T18:44:26.488Z,3.05
2022-08-20T18:47:02.019Z,2.78
2022-08-20T18:49:34.979Z,2.42
2022-08-20T18:52:30.338Z,2.35
2022-08-20T18:55:00.241Z,2.53
2022-08-20T18:57:32.104Z,2.30
2022-08-20T19:00:12.600Z,2.85
2022-08-20T19:03:26.444Z,2.40
2022-08-20T19:06:15.980Z,2.28
2022-08-20T19:08:51.764Z,2.25
2022-08-20T19:11:28.153Z,1.80
2022-08-20T19:14:24.780Z,2.05
2022-08-20T19:17:20.921Z,2.33
2022-08-20T19:20:05.431Z,2.00
2022-08-20T19:22:34.554Z,2.47
2022-08-20T19:25:01.984Z,2.58
2022-08-20T19:27:30.694Z,2.13
2022-08-20T19:29:58.523Z,2.58
2022-08-20T19:32:29.807Z,2.40
2022-08-20T19:35:07.318Z,2.70
2022-08-20T19:37:50.625Z,2.40
2022-08-20T19:40:29.039Z,2.90
2022-08-20T19:43:03.323Z,2.45
2022-08-20T19:45:37.385Z,2.58
2022-08-20T19:48:16.854Z,2.45
2022-08-20T19:51:04.508Z,2.60
2022-08-20T19:53:34.331Z,2.92
2022-08-20T19:56:23.396Z,2.63
2022-08-20T19:59:02.778Z,3.10
2022-08-20T20:01:30.755Z,3.40
2022-08-20T20:04:04.561Z,3.13
2022-08-20T20:06:38.349Z,2.50
2022-08-20T20:09:20.346Z,2.60
2022-08-20T20:11:52.968Z,2.42
2022-08-20T20:14:24.748Z,2.15
2022-08-20T20:16:52.551Z,1.92
2022-08-20T20:19:28.244Z,2.50
2022-08-20T20:22:19.239Z,2.50
2022-08-20T20:25:05.164Z,2.45
2022-08-20T20:27:32.912Z,2.95
2022-08-20T20:30:09.056Z,2.97
2022-08-20T20:32:48.981Z,2.88
2022-08-20T20:35:46.332Z,2.20
2022-08-20T20:38:26.411Z,2.70
2022-08-20T20:40:56.979Z,2.30
2022-08-20T20:43:33.544Z,2.95
2022-08-20T20:46:08.012Z,3.30
2022-08-20T20:48:48.683Z,3.50
2022-08-20T20:51:23.744Z,3.28
2022-08-20T20:53:54.675Z,3.20
2022-08-20T20:56:27.633Z,2.95
2022-08-20T20:58:55.999Z,3.00
2022-08-20T21:01:41.397Z,3.22
2022-08-20T21:04:10.862Z,3.33
2022-08-20T21:06:38.471Z,3.20
2022-08-20T21:09:05.771Z,3.55
2022-08-20T21:11:32.872Z,3.50
2022-08-20T21:14:00.258Z,3.78
2022-08-20T21:16:27.285Z,2.90
2022-08-20T21:18:54.619Z,3.20
2022-08-20T21:21:21.564Z,3.60
2022-08-20T21:23:48.963Z,2.80
2022-08-20T21:26:16.418Z,3.45
2022-08-20T21:28:43.885Z,4.07
2022-08-20T21:31:11.237Z,3.97
2022-08-20T21:33:39.043Z,3.55
2022-08-20T21:36:06.654Z,3.97
2022-08-20T21:38:33.687Z,3.67
2022-08-20T21:41:01.005Z,4.10
2022-08-20T21:43:32.731Z,3.90
2022-08-20T21:46:01.472Z,3.85
2022-08-20T21:48:29.765Z,3.92
2022-08-20T21:50:58.859Z,3.67
2022-08-20T21:53:26.670Z,4.10
2022-08-20T21:55:54.292Z,4.00
2022-08-20T21:58:21.642Z,4.20
2022-08-20T22:00:49.174Z,3.88
2022-08-20T22:03:17.221Z,4.65
2022-08-20T22:05:48.490Z,4.80
2022-08-20T22:08:15.590Z,4.55
2022-08-20T22:10:43.026Z,4.07
2022-08-20T22:13:10.450Z,4.47
2022-08-20T22:15:39.239Z,4.40
2022-08-20T22:18:06.744Z,3.85
2022-08-20T22:20:34.204Z,4.53
2022-08-20T22:23:04.121Z,4.32
2022-08-20T22:25:31.724Z,3.72
2022-08-20T22:27:59.239Z,4.00
2022-08-20T22:30:26.954Z,4.13
2022-08-20T22:33:05.997Z,4.20
2022-08-20T22:35:34.835Z,3.80
2022-08-20T22:38:02.624Z,4.40
2022-08-20T22:40:30.153Z,3.47
2022-08-20T22:42:57.653Z,3.92
2022-08-20T22:45:25.689Z,4.10
2022-08-20T22:47:53.465Z,3.95
2022-08-20T22:50:24.320Z,4.70
2022-08-20T22:52:51.893Z,4.30
2022-08-20T22:55:20.092Z,4.70
2022-08-20T22:57:47.915Z,4.90
2022-08-20T23:00:18.562Z,4.13
2022-08-20T23:02:55.038Z,4.55
2022-08-20T23:05:25.157Z,4.80
2022-08-20T23:07:54.544Z,4.88
2022-08-20T23:10:22.565Z,4.18
2022-08-20T23:12:50.393Z,4.35
2022-08-20T23:15:17.743Z,4.35
2022-08-20T23:17:45.144Z,4.38
2022-08-20T23:20:14.881Z,4.00
2022-08-20T23:22:42.226Z,3.90
2022-08-20T23:25:10.634Z,4.30
2022-08-20T23:27:46.999Z,3.97
2022-08-20T23:30:14.709Z,3.78
2022-08-20T23:32:42.318Z,4.05
2022-08-20T23:35:10.659Z,4.00
2022-08-20T23:37:43.281Z,4.22
2022-08-20T23:40:11.419Z,3.72
2022-08-20T23:42:38.829Z,4.40
2022-08-20T23:45:06.966Z,4.28
2022-08-20T23:47:34.704Z,4.32
2022-08-20T23:50:02.158Z,4.40
2022-08-20T23:52:29.577Z,4.90
2022-08-20T23:54:57.071Z,4.38
2022-08-20T23:57:24.587Z,4.68
2022-08-20T23:59:52.888Z,4.38
